sensor_id;sensor_type;location;lat;lon;timestamp;P1;durP1;ratioP1;P2;durP2;ratioP2
72109;SDS011;59983;52.010;5.420;2022-10-16T00:00:58;6.23;;;3.97;;
72109;SDS011;59983;52.010;5.420;2022-10-16T00:03:31;6.70;;;3.67;;
72109;SDS011;59983;52.010;5.420;2022-10-16T00:05:58;4.57;;;4.20;;
72109;SDS011;59983;52.010;5.420;2022-10-16T00:08:26;4.75;;;3.80;;
72109;SDS011;59983;52.010;5.420;2022-10-16T00:10:58;5.38;;;3.45;;
72109;SDS011;59983;52.010;5.420;2022-10-16T00:13:30;5.60;;;3.33;;
72109;SDS011;59983;52.010;5.420;2022-10-16T00:15:57;3.80;;;3.50;;
72109;SDS011;59983;52.010;5.420;2022-10-16T00:18:24;4.55;;;3.90;;
72109;SDS011;59983;52.010;5.420;2022-10-16T00:20:52;4.78;;;4.40;;
72109;SDS011;59983;52.010;5.420;2022-10-16T00:23:19;4.97;;;4.47;;
72109;SDS011;59983;52.010;5.420;2022-10-16T00:25:54;5.80;;;3.63;;
72109;SDS011;59983;52.010;5.420;2022-10-16T00:28:25;5.05;;;4.32;;
72109;SDS011;59983;52.010;5.420;2022-10-16T00:30:52;6.25;;;4.95;;
72109;SDS011;59983;52.010;5.420;2022-10-16T00:33:19;5.15;;;4.30;;
72109;SDS011;59983;52.010;5.420;2022-10-16T00:35:45;3.97;;;3.67;;
72109;SDS011;59983;52.010;5.420;2022-10-16T00:38:12;4.97;;;4.57;;
72109;SDS011;59983;52.010;5.420;2022-10-16T00:40:39;4.30;;;3.90;;
72109;SDS011;59983;52.010;5.420;2022-10-16T00:43:12;4.18;;;3.88;;
72109;SDS011;59983;52.010;5.420;2022-10-16T00:45:59;4.05;;;3.75;;
72109;SDS011;59983;52.010;5.420;2022-10-16T00:48:27;5.57;;;4.10;;
72109;SDS011;59983;52.010;5.420;2022-10-16T00:50:54;5.20;;;4.10;;
72109;SDS011;59983;52.010;5.420;2022-10-16T00:53:22;5.20;;;3.60;;
72109;SDS011;59983;52.010;5.420;2022-10-16T00:55:51;4.47;;;4.07;;
72109;SDS011;59983;52.010;5.420;2022-10-16T00:58:18;6.00;;;4.20;;
72109;SDS011;59983;52.010;5.420;2022-10-16T01:00:44;9.77;;;4.22;;
72109;SDS011;59983;52.010;5.420;2022-10-16T01:03:28;4.33;;;3.53;;
72109;SDS011;59983;52.010;5.420;2022-10-16T01:06:04;3.95;;;3.65;;
72109;SDS011;59983;52.010;5.420;2022-10-16T01:11:45;4.82;;;4.40;;
72109;SDS011;59983;52.010;5.420;2022-10-16T01:14:19;4.68;;;3.60;;
72109;SDS011;59983;52.010;5.420;2022-10-16T01:16:54;6.23;;;3.37;;
72109;SDS011;59983;52.010;5.420;2022-10-16T01:19:32;10.45;;;3.70;;
72109;SDS011;59983;52.010;5.420;2022-10-16T01:22:10;4.15;;;3.80;;
72109;SDS011;59983;52.010;5.420;2022-10-16T01:37:41;4.75;;;4.30;;
72109;SDS011;59983;52.010;5.420;2022-10-16T01:40:15;4.00;;;3.70;;
72109;SDS011;59983;52.010;5.420;2022-10-16T01:42:48;4.73;;;4.10;;
72109;SDS011;59983;52.010;5.420;2022-10-16T01:45:28;3.97;;;3.58;;
72109;SDS011;59983;52.010;5.420;2022-10-16T01:47:57;5.30;;;3.92;;
72109;SDS011;59983;52.010;5.420;2022-10-16T01:50:26;4.22;;;3.92;;
72109;SDS011;59983;52.010;5.420;2022-10-16T01:52:53;5.00;;;4.50;;
72109;SDS011;59983;52.010;5.420;2022-10-16T01:55:28;4.40;;;4.10;;
72109;SDS011;59983;52.010;5.420;2022-10-16T01:57:56;5.00;;;4.47;;
72109;SDS011;59983;52.010;5.420;2022-10-16T02:00:25;7.53;;;4.57;;
72109;SDS011;59983;52.010;5.420;2022-10-16T02:02:53;4.32;;;4.03;;
72109;SDS011;59983;52.010;5.420;2022-10-16T02:05:25;6.95;;;4.78;;
72109;SDS011;59983;52.010;5.420;2022-10-16T02:07:57;5.40;;;4.90;;
72109;SDS011;59983;52.010;5.420;2022-10-16T02:10:28;6.68;;;3.80;;
72109;SDS011;59983;52.010;5.420;2022-10-16T02:13:01;5.03;;;4.65;;
72109;SDS011;59983;52.010;5.420;2022-10-16T02:15:49;4.55;;;4.13;;
72109;SDS011;59983;52.010;5.420;2022-10-16T02:18:15;4.25;;;3.95;;
72109;SDS011;59983;52.010;5.420;2022-10-16T02:21:02;5.00;;;4.50;;
72109;SDS011;59983;52.010;5.420;2022-10-16T02:26:42;3.55;;;3.25;;
72109;SDS011;59983;52.010;5.420;2022-10-16T02:29:16;5.43;;;4.93;;
72109;SDS011;59983;52.010;5.420;2022-10-16T02:31:47;3.90;;;3.53;;
72109;SDS011;59983;52.010;5.420;2022-10-16T02:34:19;4.60;;;3.83;;
72109;SDS011;59983;52.010;5.420;2022-10-16T02:36:48;4.80;;;4.50;;
72109;SDS011;59983;52.010;5.420;2022-10-16T02:39:16;4.32;;;3.92;;
72109;SDS011;59983;52.010;5.420;2022-10-16T02:41:44;4.55;;;4.05;;
72109;SDS011;59983;52.010;5.420;2022-10-16T02:44:10;5.35;;;4.13;;
72109;SDS011;59983;52.010;5.420;2022-10-16T02:46:37;4.67;;;4.37;;
72109;SDS011;59983;52.010;5.420;2022-10-16T02:49:03;4.45;;;4.15;;
72109;SDS011;59983;52.010;5.420;2022-10-16T02:51:30;4.93;;;4.53;;
72109;SDS011;59983;52.010;5.420;2022-10-16T02:53:56;4.45;;;4.15;;
72109;SDS011;59983;52.010;5.420;2022-10-16T02:56:23;4.85;;;4.47;;
72109;SDS011;59983;52.010;5.420;2022-10-16T02:58:50;4.70;;;4.20;;
72109;SDS011;59983;52.010;5.420;2022-10-16T03:01:16;4.45;;;4.25;;
72109;SDS011;59983;52.010;5.420;2022-10-16T03:03:43;5.18;;;4.43;;
72109;SDS011;59983;52.010;5.420;2022-10-16T03:06:09;4.60;;;4.32;;
72109;SDS011;59983;52.010;5.420;2022-10-16T03:08:36;5.15;;;4.68;;
72109;SDS011;59983;52.010;5.420;2022-10-16T03:11:02;5.80;;;4.87;;
72109;SDS011;59983;52.010;5.420;2022-10-16T03:13:29;4.22;;;3.92;;
72109;SDS011;59983;52.010;5.420;2022-10-16T03:15:55;6.57;;;4.70;;
72109;SDS011;59983;52.010;5.420;2022-10-16T03:18:22;3.95;;;3.65;;
72109;SDS011;59983;52.010;5.420;2022-10-16T03:20:48;4.00;;;3.80;;
72109;SDS011;59983;52.010;5.420;2022-10-16T03:23:15;3.93;;;3.63;;
72109;SDS011;59983;52.010;5.420;2022-10-16T03:25:41;4.35;;;3.95;;
72109;SDS011;59983;52.010;5.420;2022-10-16T03:28:07;4.45;;;4.25;;
72109;SDS011;59983;52.010;5.420;2022-10-16T03:30:34;3.60;;;3.40;;
72109;SDS011;59983;52.010;5.420;2022-10-16T03:33:01;4.18;;;3.88;;
72109;SDS011;59983;52.010;5.420;2022-10-16T03:35:27;4.20;;;3.90;;
72109;SDS011;59983;52.010;5.420;2022-10-16T03:37:53;4.10;;;3.80;;
72109;SDS011;59983;52.010;5.420;2022-10-16T03:40:20;3.90;;;3.70;;
72109;SDS011;59983;52.010;5.420;2022-10-16T03:42:47;4.47;;;4.07;;
72109;SDS011;59983;52.010;5.420;2022-10-16T03:45:13;3.60;;;3.30;;
72109;SDS011;59983;52.010;5.420;2022-10-16T03:47:40;4.30;;;4.00;;
72109;SDS011;59983;52.010;5.420;2022-10-16T03:50:07;4.50;;;4.13;;
72109;SDS011;59983;52.010;5.420;2022-10-16T03:52:34;4.45;;;4.15;;
72109;SDS011;59983;52.010;5.420;2022-10-16T03:55:00;6.43;;;4.85;;
72109;SDS011;59983;52.010;5.420;2022-10-16T03:57:27;4.43;;;4.13;;
72109;SDS011;59983;52.010;5.420;2022-10-16T03:59:54;5.47;;;4.53;;
72109;SDS011;59983;52.010;5.420;2022-10-16T04:02:20;4.60;;;4.30;;
72109;SDS011;59983;52.010;5.420;2022-10-16T04:04:47;4.25;;;4.05;;
72109;SDS011;59983;52.010;5.420;2022-10-16T04:07:13;3.50;;;3.38;;
72109;SDS011;59983;52.010;5.420;2022-10-16T04:09:40;4.25;;;3.97;;
72109;SDS011;59983;52.010;5.420;2022-10-16T04:12:06;5.10;;;3.87;;
72109;SDS011;59983;52.010;5.420;2022-10-16T04:14:33;4.22;;;4.03;;
72109;SDS011;59983;52.010;5.420;2022-10-16T04:17:00;3.92;;;3.72;;
72109;SDS011;59983;52.010;5.420;2022-10-16T04:19:26;4.30;;;4.00;;
72109;SDS011;59983;52.010;5.420;2022-10-16T04:21:53;4.25;;;3.90;;
72109;SDS011;59983;52.010;5.420;2022-10-16T04:24:19;4.00;;;3.70;;
72109;SDS011;59983;52.010;5.420;2022-10-16T04:26:46;4.07;;;3.88;;
72109;SDS011;59983;52.010;5.420;2022-10-16T04:29:12;4.78;;;4.47;;
72109;SDS011;59983;52.010;5.420;2022-10-16T04:31:38;4.38;;;3.97;;
72109;SDS011;59983;52.010;5.420;2022-10-16T04:34:05;3.40;;;3.20;;
72109;SDS011;59983;52.010;5.420;2022-10-16T04:36:31;3.30;;;3.17;;
72109;SDS011;59983;52.010;5.420;2022-10-16T04:38:58;3.33;;;3.15;;
72109;SDS011;59983;52.010;5.420;2022-10-16T04:41:25;4.70;;;3.63;;
72109;SDS011;59983;52.010;5.420;2022-10-16T04:43:51;4.47;;;4.13;;
72109;SDS011;59983;52.010;5.420;2022-10-16T04:46:17;4.25;;;4.05;;
72109;SDS011;59983;52.010;5.420;2022-10-16T04:48:44;4.20;;;4.00;;
72109;SDS011;59983;52.010;5.420;2022-10-16T04:51:11;4.30;;;4.00;;
72109;SDS011;59983;52.010;5.420;2022-10-16T04:53:37;5.97;;;3.92;;
72109;SDS011;59983;52.010;5.420;2022-10-16T04:56:04;4.05;;;3.85;;
72109;SDS011;59983;52.010;5.420;2022-10-16T04:58:30;4.93;;;4.63;;
72109;SDS011;59983;52.010;5.420;2022-10-16T05:00:57;4.87;;;4.47;;
72109;SDS011;59983;52.010;5.420;2022-10-16T05:03:23;5.55;;;5.10;;
72109;SDS011;59983;52.010;5.420;2022-10-16T05:05:50;6.70;;;6.00;;
72109;SDS011;59983;52.010;5.420;2022-10-16T05:08:16;6.15;;;5.47;;
72109;SDS011;59983;52.010;5.420;2022-10-16T05:10:43;6.72;;;6.25;;
72109;SDS011;59983;52.010;5.420;2022-10-16T05:13:11;7.97;;;7.07;;
72109;SDS011;59983;52.010;5.420;2022-10-16T05:15:37;7.50;;;6.68;;
72109;SDS011;59983;52.010;5.420;2022-10-16T05:18:04;7.43;;;6.60;;
72109;SDS011;59983;52.010;5.420;2022-10-16T05:20:30;9.60;;;8.57;;
72109;SDS011;59983;52.010;5.420;2022-10-16T05:22:57;7.95;;;7.20;;
72109;SDS011;59983;52.010;5.420;2022-10-16T05:25:23;11.53;;;7.07;;
72109;SDS011;59983;52.010;5.420;2022-10-16T05:27:50;9.18;;;8.40;;
72109;SDS011;59983;52.010;5.420;2022-10-16T05:30:17;7.97;;;7.28;;
72109;SDS011;59983;52.010;5.420;2022-10-16T05:32:47;8.68;;;7.75;;
72109;SDS011;59983;52.010;5.420;2022-10-16T05:35:15;9.30;;;7.47;;
72109;SDS011;59983;52.010;5.420;2022-10-16T05:37:42;8.43;;;7.63;;
72109;SDS011;59983;52.010;5.420;2022-10-16T05:40:09;8.73;;;7.90;;
72109;SDS011;59983;52.010;5.420;2022-10-16T05:42:36;8.05;;;7.38;;
72109;SDS011;59983;52.010;5.420;2022-10-16T05:45:04;8.80;;;8.10;;
72109;SDS011;59983;52.010;5.420;2022-10-16T05:47:31;9.02;;;8.25;;
72109;SDS011;59983;52.010;5.420;2022-10-16T05:49:58;8.27;;;7.47;;
72109;SDS011;59983;52.010;5.420;2022-10-16T05:52:24;8.13;;;7.18;;
72109;SDS011;59983;52.010;5.420;2022-10-16T05:54:50;7.00;;;6.40;;
72109;SDS011;59983;52.010;5.420;2022-10-16T05:57:17;7.10;;;6.43;;
72109;SDS011;59983;52.010;5.420;2022-10-16T05:59:43;8.38;;;6.80;;
72109;SDS011;59983;52.010;5.420;2022-10-16T06:02:12;6.80;;;6.20;;
72109;SDS011;59983;52.010;5.420;2022-10-16T06:04:39;6.75;;;6.22;;
72109;SDS011;59983;52.010;5.420;2022-10-16T06:07:06;6.57;;;6.07;;
72109;SDS011;59983;52.010;5.420;2022-10-16T06:09:32;6.20;;;5.70;;
72109;SDS011;59983;52.010;5.420;2022-10-16T06:11:59;6.72;;;6.25;;
72109;SDS011;59983;52.010;5.420;2022-10-16T06:14:25;5.97;;;5.47;;
72109;SDS011;59983;52.010;5.420;2022-10-16T06:16:52;5.80;;;5.13;;
72109;SDS011;59983;52.010;5.420;2022-10-16T06:19:18;6.45;;;5.95;;
72109;SDS011;59983;52.010;5.420;2022-10-16T06:21:44;5.75;;;5.15;;
72109;SDS011;59983;52.010;5.420;2022-10-16T06:24:11;5.40;;;4.93;;
72109;SDS011;59983;52.010;5.420;2022-10-16T06:26:37;6.60;;;5.10;;
72109;SDS011;59983;52.010;5.420;2022-10-16T06:29:04;7.75;;;4.55;;
72109;SDS011;59983;52.010;5.420;2022-10-16T06:31:31;6.10;;;4.90;;
72109;SDS011;59983;52.010;5.420;2022-10-16T06:33:59;5.82;;;5.38;;
72109;SDS011;59983;52.010;5.420;2022-10-16T06:36:26;6.95;;;5.40;;
72109;SDS011;59983;52.010;5.420;2022-10-16T06:38:53;9.10;;;4.90;;
72109;SDS011;59983;52.010;5.420;2022-10-16T06:41:21;5.38;;;4.88;;
72109;SDS011;59983;52.010;5.420;2022-10-16T06:43:48;5.95;;;5.45;;
72109;SDS011;59983;52.010;5.420;2022-10-16T06:46:16;5.63;;;5.22;;
72109;SDS011;59983;52.010;5.420;2022-10-16T06:48:44;6.57;;;4.78;;
72109;SDS011;59983;52.010;5.420;2022-10-16T06:51:12;4.93;;;4.63;;
72109;SDS011;59983;52.010;5.420;2022-10-16T06:53:41;5.13;;;4.82;;
72109;SDS011;59983;52.010;5.420;2022-10-16T06:56:28;4.38;;;4.18;;
72109;SDS011;59983;52.010;5.420;2022-10-16T06:58:57;4.70;;;4.35;;
72109;SDS011;59983;52.010;5.420;2022-10-16T07:01:24;4.78;;;4.38;;
72109;SDS011;59983;52.010;5.420;2022-10-16T07:03:51;3.77;;;3.57;;
72109;SDS011;59983;52.010;5.420;2022-10-16T07:06:19;4.30;;;3.90;;
72109;SDS011;59983;52.010;5.420;2022-10-16T07:08:47;3.95;;;3.75;;
72109;SDS011;59983;52.010;5.420;2022-10-16T07:11:18;6.03;;;3.80;;
72109;SDS011;59983;52.010;5.420;2022-10-16T07:13:47;4.35;;;4.00;;
72109;SDS011;59983;52.010;5.420;2022-10-16T07:16:20;3.93;;;3.60;;
72109;SDS011;59983;52.010;5.420;2022-10-16T07:18:49;4.10;;;3.70;;
72109;SDS011;59983;52.010;5.420;2022-10-16T07:21:21;4.50;;;4.30;;
72109;SDS011;59983;52.010;5.420;2022-10-16T07:23:52;4.65;;;4.35;;
72109;SDS011;59983;52.010;5.420;2022-10-16T07:26:20;6.55;;;4.45;;
72109;SDS011;59983;52.010;5.420;2022-10-16T07:28:47;4.30;;;3.90;;
72109;SDS011;59983;52.010;5.420;2022-10-16T07:31:14;4.35;;;3.95;;
72109;SDS011;59983;52.010;5.420;2022-10-16T07:33:42;4.65;;;4.13;;
72109;SDS011;59983;52.010;5.420;2022-10-16T07:36:11;5.22;;;4.35;;
72109;SDS011;59983;52.010;5.420;2022-10-16T07:38:41;4.82;;;4.38;;
72109;SDS011;59983;52.010;5.420;2022-10-16T07:41:09;4.73;;;4.43;;
72109;SDS011;59983;52.010;5.420;2022-10-16T07:43:38;4.47;;;4.05;;
72109;SDS011;59983;52.010;5.420;2022-10-16T07:46:05;7.20;;;4.43;;
72109;SDS011;59983;52.010;5.420;2022-10-16T07:48:32;5.22;;;4.40;;
72109;SDS011;59983;52.010;5.420;2022-10-16T07:51:01;4.72;;;4.40;;
72109;SDS011;59983;52.010;5.420;2022-10-16T07:53:30;6.70;;;4.40;;
72109;SDS011;59983;52.010;5.420;2022-10-16T07:55:58;4.28;;;4.00;;
72109;SDS011;59983;52.010;5.420;2022-10-16T07:58:29;5.35;;;4.35;;
72109;SDS011;59983;52.010;5.420;2022-10-16T08:00:56;5.60;;;4.32;;
72109;SDS011;59983;52.010;5.420;2022-10-16T08:03:24;7.00;;;4.35;;
72109;SDS011;59983;52.010;5.420;2022-10-16T08:05:51;4.60;;;4.17;;
72109;SDS011;59983;52.010;5.420;2022-10-16T08:08:18;4.80;;;4.28;;
72109;SDS011;59983;52.010;5.420;2022-10-16T08:10:45;4.07;;;3.72;;
72109;SDS011;59983;52.010;5.420;2022-10-16T08:13:11;4.50;;;4.20;;
72109;SDS011;59983;52.010;5.420;2022-10-16T08:15:42;6.03;;;4.07;;
72109;SDS011;59983;52.010;5.420;2022-10-16T08:18:09;4.80;;;4.50;;
72109;SDS011;59983;52.010;5.420;2022-10-16T08:20:37;8.13;;;4.30;;
72109;SDS011;59983;52.010;5.420;2022-10-16T08:23:04;4.68;;;4.45;;
72109;SDS011;59983;52.010;5.420;2022-10-16T08:25:31;6.43;;;4.40;;
72109;SDS011;59983;52.010;5.420;2022-10-16T08:28:03;5.22;;;4.05;;
72109;SDS011;59983;52.010;5.420;2022-10-16T08:30:33;4.20;;;3.90;;
72109;SDS011;59983;52.010;5.420;2022-10-16T08:33:00;5.13;;;4.60;;
72109;SDS011;59983;52.010;5.420;2022-10-16T08:35:28;5.05;;;4.55;;
72109;SDS011;59983;52.010;5.420;2022-10-16T08:37:54;9.63;;;4.05;;
72109;SDS011;59983;52.010;5.420;2022-10-16T08:40:25;4.93;;;4.53;;
72109;SDS011;59983;52.010;5.420;2022-10-16T08:43:17;4.70;;;4.30;;
72109;SDS011;59983;52.010;5.420;2022-10-16T08:48:18;4.28;;;3.55;;
72109;SDS011;59983;52.010;5.420;2022-10-16T08:50:52;4.22;;;3.92;;
72109;SDS011;59983;52.010;5.420;2022-10-16T08:53:22;5.40;;;4.00;;
72109;SDS011;59983;52.010;5.420;2022-10-16T08:55:54;4.53;;;4.30;;
72109;SDS011;59983;52.010;5.420;2022-10-16T08:58:22;5.03;;;3.45;;
72109;SDS011;59983;52.010;5.420;2022-10-16T09:00:56;6.40;;;4.55;;
72109;SDS011;59983;52.010;5.420;2022-10-16T09:12:36;8.80;;;3.83;;
72109;SDS011;59983;52.010;5.420;2022-10-16T09:22:45;5.80;;;4.10;;
72109;SDS011;59983;52.010;5.420;2022-10-16T09:25:12;4.53;;;3.90;;
72109;SDS011;59983;52.010;5.420;2022-10-16T09:27:42;8.30;;;4.50;;
72109;SDS011;59983;52.010;5.420;2022-10-16T09:30:18;8.68;;;3.80;;
72109;SDS011;59983;52.010;5.420;2022-10-16T09:32:47;5.85;;;4.00;;
72109;SDS011;59983;52.010;5.420;2022-10-16T09:35:17;5.57;;;4.60;;
72109;SDS011;59983;52.010;5.420;2022-10-16T09:37:51;4.95;;;3.85;;
72109;SDS011;59983;52.010;5.420;2022-10-16T09:40:24;4.47;;;3.53;;
72109;SDS011;59983;52.010;5.420;2022-10-16T09:42:52;6.85;;;3.97;;
72109;SDS011;59983;52.010;5.420;2022-10-16T09:45:29;7.45;;;4.07;;
72109;SDS011;59983;52.010;5.420;2022-10-16T09:47:55;8.57;;;4.43;;
72109;SDS011;59983;52.010;5.420;2022-10-16T09:50:27;9.23;;;3.70;;
72109;SDS011;59983;52.010;5.420;2022-10-16T09:53:04;7.28;;;3.90;;
72109;SDS011;59983;52.010;5.420;2022-10-16T09:55:47;6.50;;;4.22;;
72109;SDS011;59983;52.010;5.420;2022-10-16T09:58:21;5.55;;;4.25;;
72109;SDS011;59983;52.010;5.420;2022-10-16T10:00:49;6.47;;;4.03;;
72109;SDS011;59983;52.010;5.420;2022-10-16T10:04:01;4.93;;;3.65;;
72109;SDS011;59983;52.010;5.420;2022-10-16T10:06:26;7.70;;;4.22;;
72109;SDS011;59983;52.010;5.420;2022-10-16T10:08:55;6.95;;;3.45;;
72109;SDS011;59983;52.010;5.420;2022-10-16T10:11:44;5.85;;;3.67;;
72109;SDS011;59983;52.010;5.420;2022-10-16T10:17:18;10.18;;;3.45;;
72109;SDS011;59983;52.010;5.420;2022-10-16T10:19:55;7.75;;;3.50;;
72109;SDS011;59983;52.010;5.420;2022-10-16T10:22:31;7.32;;;3.65;;
72109;SDS011;59983;52.010;5.420;2022-10-16T10:28:00;7.83;;;3.37;;
72109;SDS011;59983;52.010;5.420;2022-10-16T10:30:26;11.63;;;3.78;;
72109;SDS011;59983;52.010;5.420;2022-10-16T10:33:08;7.88;;;3.45;;
72109;SDS011;59983;52.010;5.420;2022-10-16T10:35:56;8.00;;;3.28;;
72109;SDS011;59983;52.010;5.420;2022-10-16T10:46:46;7.65;;;3.08;;
72109;SDS011;59983;52.010;5.420;2022-10-16T11:09:09;7.37;;;3.10;;
72109;SDS011;59983;52.010;5.420;2022-10-16T11:11:43;4.70;;;2.63;;
72109;SDS011;59983;52.010;5.420;2022-10-16T11:14:24;8.45;;;2.88;;
72109;SDS011;59983;52.010;5.420;2022-10-16T11:17:19;10.98;;;3.42;;
72109;SDS011;59983;52.010;5.420;2022-10-16T11:19:59;8.52;;;3.38;;
72109;SDS011;59983;52.010;5.420;2022-10-16T11:22:41;4.93;;;2.20;;
72109;SDS011;59983;52.010;5.420;2022-10-16T11:27:52;17.15;;;3.20;;
72109;SDS011;59983;52.010;5.420;2022-10-16T11:30:27;10.57;;;2.88;;
72109;SDS011;59983;52.010;5.420;2022-10-16T11:35:34;6.00;;;3.20;;
72109;SDS011;59983;52.010;5.420;2022-10-16T11:38:12;5.97;;;3.28;;
72109;SDS011;59983;52.010;5.420;2022-10-16T11:40:46;8.40;;;3.03;;
72109;SDS011;59983;52.010;5.420;2022-10-16T11:45:53;7.10;;;2.75;;
72109;SDS011;59983;52.010;5.420;2022-10-16T11:51:01;6.82;;;2.47;;
72109;SDS011;59983;52.010;5.420;2022-10-16T11:56:20;9.65;;;3.13;;
72109;SDS011;59983;52.010;5.420;2022-10-16T11:58:55;5.25;;;2.35;;
72109;SDS011;59983;52.010;5.420;2022-10-16T12:01:30;9.40;;;2.37;;
72109;SDS011;59983;52.010;5.420;2022-10-16T12:12:27;8.77;;;3.53;;
72109;SDS011;59983;52.010;5.420;2022-10-16T12:18:24;6.43;;;2.47;;
72109;SDS011;59983;52.010;5.420;2022-10-16T12:20:54;10.85;;;3.03;;
72109;SDS011;59983;52.010;5.420;2022-10-16T12:23:30;7.25;;;1.92;;
72109;SDS011;59983;52.010;5.420;2022-10-16T12:25:59;5.82;;;2.50;;
72109;SDS011;59983;52.010;5.420;2022-10-16T12:28:29;12.27;;;2.83;;
72109;SDS011;59983;52.010;5.420;2022-10-16T12:31:02;8.75;;;2.03;;
72109;SDS011;59983;52.010;5.420;2022-10-16T12:33:34;3.80;;;2.20;;
72109;SDS011;59983;52.010;5.420;2022-10-16T12:36:15;9.02;;;2.08;;
72109;SDS011;59983;52.010;5.420;2022-10-16T12:38:54;4.68;;;2.10;;
72109;SDS011;59983;52.010;5.420;2022-10-16T12:41:28;6.77;;;2.23;;
72109;SDS011;59983;52.010;5.420;2022-10-16T12:43:59;11.75;;;2.35;;
72109;SDS011;59983;52.010;5.420;2022-10-16T12:49:05;10.88;;;2.50;;
72109;SDS011;59983;52.010;5.420;2022-10-16T12:51:35;8.25;;;2.47;;
72109;SDS011;59983;52.010;5.420;2022-10-16T13:00:05;7.65;;;2.35;;
72109;SDS011;59983;52.010;5.420;2022-10-16T13:24:42;8.63;;;2.70;;
72109;SDS011;59983;52.010;5.420;2022-10-16T13:27:54;7.85;;;3.15;;
72109;SDS011;59983;52.010;5.420;2022-10-16T13:33:04;11.32;;;2.55;;
72109;SDS011;59983;52.010;5.420;2022-10-16T13:35:36;8.27;;;2.57;;
72109;SDS011;59983;52.010;5.420;2022-10-16T13:43:31;8.98;;;2.53;;
72109;SDS011;59983;52.010;5.420;2022-10-16T13:48:29;6.67;;;2.17;;
72109;SDS011;59983;52.010;5.420;2022-10-16T13:51:06;4.70;;;2.22;;
72109;SDS011;59983;52.010;5.420;2022-10-16T13:53:37;7.18;;;2.17;;
72109;SDS011;59983;52.010;5.420;2022-10-16T13:56:05;7.80;;;2.60;;
72109;SDS011;59983;52.010;5.420;2022-10-16T13:58:39;7.57;;;2.15;;
72109;SDS011;59983;52.010;5.420;2022-10-16T14:01:16;7.70;;;2.50;;
72109;SDS011;59983;52.010;5.420;2022-10-16T14:03:46;13.63;;;2.67;;
72109;SDS011;59983;52.010;5.420;2022-10-16T14:06:15;11.23;;;2.50;;
72109;SDS011;59983;52.010;5.420;2022-10-16T14:11:57;8.40;;;2.17;;
72109;SDS011;59983;52.010;5.420;2022-10-16T14:14:34;8.27;;;2.07;;
72109;SDS011;59983;52.010;5.420;2022-10-16T14:17:06;7.78;;;2.83;;
72109;SDS011;59983;52.010;5.420;2022-10-16T14:19:39;9.90;;;1.95;;
72109;SDS011;59983;52.010;5.420;2022-10-16T14:22:18;8.55;;;2.10;;
72109;SDS011;59983;52.010;5.420;2022-10-16T14:24:49;5.43;;;2.40;;
72109;SDS011;59983;52.010;5.420;2022-10-16T14:27:32;10.67;;;2.70;;
72109;SDS011;59983;52.010;5.420;2022-10-16T14:32:40;7.57;;;2.00;;
72109;SDS011;59983;52.010;5.420;2022-10-16T14:35:24;7.30;;;3.00;;
72109;SDS011;59983;52.010;5.420;2022-10-16T14:37:56;7.05;;;2.10;;
72109;SDS011;59983;52.010;5.420;2022-10-16T14:40:24;4.90;;;3.03;;
72109;SDS011;59983;52.010;5.420;2022-10-16T14:42:53;10.77;;;2.47;;
72109;SDS011;59983;52.010;5.420;2022-10-16T14:45:24;6.63;;;2.67;;
72109;SDS011;59983;52.010;5.420;2022-10-16T14:47:57;11.00;;;3.00;;
72109;SDS011;59983;52.010;5.420;2022-10-16T14:50:25;7.20;;;2.13;;
72109;SDS011;59983;52.010;5.420;2022-10-16T14:52:52;6.80;;;2.30;;
72109;SDS011;59983;52.010;5.420;2022-10-16T14:55:19;12.95;;;2.50;;
72109;SDS011;59983;52.010;5.420;2022-10-16T14:57:46;12.18;;;3.10;;
72109;SDS011;59983;52.010;5.420;2022-10-16T15:02:45;6.35;;;2.40;;
72109;SDS011;59983;52.010;5.420;2022-10-16T15:05:16;7.03;;;2.20;;
72109;SDS011;59983;52.010;5.420;2022-10-16T15:07:48;5.80;;;2.20;;
72109;SDS011;59983;52.010;5.420;2022-10-16T15:10:18;5.20;;;2.13;;
72109;SDS011;59983;52.010;5.420;2022-10-16T15:12:47;6.82;;;2.35;;
72109;SDS011;59983;52.010;5.420;2022-10-16T15:17:49;10.63;;;2.10;;
72109;SDS011;59983;52.010;5.420;2022-10-16T15:20:19;7.13;;;2.00;;
72109;SDS011;59983;52.010;5.420;2022-10-16T15:22:46;6.72;;;2.08;;
72109;SDS011;59983;52.010;5.420;2022-10-16T15:28:11;19.00;;;10.05;;
72109;SDS011;59983;52.010;5.420;2022-10-16T15:30:39;14.63;;;5.80;;
72109;SDS011;59983;52.010;5.420;2022-10-16T15:33:10;7.35;;;3.20;;
72109;SDS011;59983;52.010;5.420;2022-10-16T15:35:39;7.53;;;2.72;;
72109;SDS011;59983;52.010;5.420;2022-10-16T15:38:06;7.43;;;2.70;;
72109;SDS011;59983;52.010;5.420;2022-10-16T15:40:32;8.38;;;3.00;;
72109;SDS011;59983;52.010;5.420;2022-10-16T15:42:59;10.50;;;3.33;;
72109;SDS011;59983;52.010;5.420;2022-10-16T15:45:25;8.48;;;3.95;;
72109;SDS011;59983;52.010;5.420;2022-10-16T15:47:52;18.20;;;4.70;;
72109;SDS011;59983;52.010;5.420;2022-10-16T15:50:18;6.72;;;4.32;;
72109;SDS011;59983;52.010;5.420;2022-10-16T15:52:45;95.18;;;52.25;;
72109;SDS011;59983;52.010;5.420;2022-10-16T15:55:12;79.60;;;38.50;;
72109;SDS011;59983;52.010;5.420;2022-10-16T15:57:40;66.63;;;34.33;;
72109;SDS011;59983;52.010;5.420;2022-10-16T16:00:10;31.52;;;16.60;;
72109;SDS011;59983;52.010;5.420;2022-10-16T16:02:42;19.70;;;11.10;;
72109;SDS011;59983;52.010;5.420;2022-10-16T16:05:09;28.25;;;15.05;;
72109;SDS011;59983;52.010;5.420;2022-10-16T16:07:37;34.70;;;14.27;;
72109;SDS011;59983;52.010;5.420;2022-10-16T16:10:05;27.25;;;13.23;;
72109;SDS011;59983;52.010;5.420;2022-10-16T16:12:33;16.98;;;9.38;;
72109;SDS011;59983;52.010;5.420;2022-10-16T16:15:00;15.07;;;8.15;;
72109;SDS011;59983;52.010;5.420;2022-10-16T16:17:31;19.48;;;9.43;;
72109;SDS011;59983;52.010;5.420;2022-10-16T16:19:58;19.33;;;8.97;;
72109;SDS011;59983;52.010;5.420;2022-10-16T16:22:25;19.17;;;8.43;;
72109;SDS011;59983;52.010;5.420;2022-10-16T16:24:52;14.90;;;7.53;;
72109;SDS011;59983;52.010;5.420;2022-10-16T16:27:19;21.48;;;8.38;;
72109;SDS011;59983;52.010;5.420;2022-10-16T16:29:51;19.13;;;9.05;;
72109;SDS011;59983;52.010;5.420;2022-10-16T16:32:18;15.77;;;8.63;;
72109;SDS011;59983;52.010;5.420;2022-10-16T16:34:45;11.23;;;7.90;;
72109;SDS011;59983;52.010;5.420;2022-10-16T16:37:11;12.80;;;7.97;;
72109;SDS011;59983;52.010;5.420;2022-10-16T16:39:38;13.20;;;8.25;;
72109;SDS011;59983;52.010;5.420;2022-10-16T16:42:04;13.05;;;8.35;;
72109;SDS011;59983;52.010;5.420;2022-10-16T16:44:33;11.93;;;7.23;;
72109;SDS011;59983;52.010;5.420;2022-10-16T16:47:02;29.88;;;16.30;;
72109;SDS011;59983;52.010;5.420;2022-10-16T16:49:30;23.92;;;11.60;;
72109;SDS011;59983;52.010;5.420;2022-10-16T16:51:56;10.02;;;6.93;;
72109;SDS011;59983;52.010;5.420;2022-10-16T16:54:23;15.20;;;8.55;;
72109;SDS011;59983;52.010;5.420;2022-10-16T16:56:50;21.17;;;11.60;;
72109;SDS011;59983;52.010;5.420;2022-10-16T16:59:18;17.95;;;10.73;;
72109;SDS011;59983;52.010;5.420;2022-10-16T17:01:46;18.80;;;13.05;;
72109;SDS011;59983;52.010;5.420;2022-10-16T17:04:16;21.90;;;9.32;;
72109;SDS011;59983;52.010;5.420;2022-10-16T17:06:42;18.48;;;8.65;;
72109;SDS011;59983;52.010;5.420;2022-10-16T17:09:10;12.53;;;7.73;;
72109;SDS011;59983;52.010;5.420;2022-10-16T17:11:39;18.27;;;7.15;;
72109;SDS011;59983;52.010;5.420;2022-10-16T17:14:08;17.00;;;7.65;;
72109;SDS011;59983;52.010;5.420;2022-10-16T17:16:36;12.43;;;7.50;;
72109;SDS011;59983;52.010;5.420;2022-10-16T17:19:06;15.07;;;7.07;;
72109;SDS011;59983;52.010;5.420;2022-10-16T17:21:34;10.37;;;7.73;;
72109;SDS011;59983;52.010;5.420;2022-10-16T17:24:00;14.07;;;6.72;;
72109;SDS011;59983;52.010;5.420;2022-10-16T17:26:28;14.32;;;6.72;;
72109;SDS011;59983;52.010;5.420;2022-10-16T17:28:56;14.38;;;6.10;;
72109;SDS011;59983;52.010;5.420;2022-10-16T17:31:28;13.05;;;5.95;;
72109;SDS011;59983;52.010;5.420;2022-10-16T17:34:00;13.97;;;6.63;;